Aviation Digital Data Service (ADDS)

Output produced by METARs form (1035 UTC 22 December 2014)
found at http://www.aviationweather.gov/adds/metars/
 
KATL 220931Z 2210/2312 09011KT 3SM -DZ BR OVC005 
     FM221200 08006KT 1SM -DZ BR OVC003 
     FM221600 09008KT 5SM -DZ BR OVC007 
     FM230000 09011KT 5SM -DZ BR OVC004 
     PROB30 2306/2310 1SM -RA BR OVC004